EDVE

Braunschweig Wolfsburg Airport

Germany
METAR EDVE 221720Z 13006KT CAVOK 23/05 Q1014
Observed Flight Rules
May-22 @ 17:20 UTC (27 minutes ago) Visual Flight Rules
Wind Visibility Clouds
130° at 6 knots 10,000+ meters
  • Clear skies
Temperatures Readings
Current 23°C / 73°F
Dewpoint 5°C / 41°F
Humidity 31%
Altimeter 29.94" Hg
Pressure 1014 hPa
Elevation 88
METAR EDVE 221720Z 13006KT CAVOK 23/05 Q1014
Observed Flight Rules
May-22 @ 17:20 UTC
(27 minutes ago)
VFR
Wind Visibility
130° at 6 knots 10,000+ meters
Clouds
  • Clear skies
Temperature Dewpoint
23°C / 73°F 5°C / 41°F
Humidity Altimeter Pressure
31% 29.94" Hg 1014 hPa